sensor_id;sensor_type;location;lat;lon;timestamp;P1;durP1;ratioP1;P2;durP2;ratioP2
84140;SDS011;74257;52.540;13.416;2024-03-25T00:02:10;7.97;;;3.42;;
84140;SDS011;74257;52.540;13.416;2024-03-25T00:04:36;10.00;;;3.20;;
84140;SDS011;74257;52.540;13.416;2024-03-25T00:07:02;6.55;;;2.95;;
84140;SDS011;74257;52.540;13.416;2024-03-25T00:09:27;8.52;;;3.50;;
84140;SDS011;74257;52.540;13.416;2024-03-25T00:11:53;5.88;;;3.42;;
84140;SDS011;74257;52.540;13.416;2024-03-25T00:14:22;7.03;;;3.53;;
84140;SDS011;74257;52.540;13.416;2024-03-25T00:16:49;6.90;;;3.10;;
84140;SDS011;74257;52.540;13.416;2024-03-25T00:19:15;6.72;;;3.22;;
84140;SDS011;74257;52.540;13.416;2024-03-25T00:21:41;6.35;;;3.10;;
84140;SDS011;74257;52.540;13.416;2024-03-25T00:24:07;5.25;;;2.88;;
84140;SDS011;74257;52.540;13.416;2024-03-25T00:26:33;7.13;;;3.30;;
84140;SDS011;74257;52.540;13.416;2024-03-25T00:28:59;5.35;;;2.90;;
84140;SDS011;74257;52.540;13.416;2024-03-25T00:31:25;7.18;;;3.28;;
84140;SDS011;74257;52.540;13.416;2024-03-25T00:33:50;8.82;;;2.80;;
84140;SDS011;74257;52.540;13.416;2024-03-25T00:36:16;6.90;;;3.38;;
84140;SDS011;74257;52.540;13.416;2024-03-25T00:38:42;7.32;;;3.55;;
84140;SDS011;74257;52.540;13.416;2024-03-25T00:41:09;8.45;;;2.88;;
84140;SDS011;74257;52.540;13.416;2024-03-25T00:43:34;7.18;;;3.15;;
84140;SDS011;74257;52.540;13.416;2024-03-25T00:46:00;8.88;;;3.75;;
84140;SDS011;74257;52.540;13.416;2024-03-25T00:48:26;8.48;;;3.63;;
84140;SDS011;74257;52.540;13.416;2024-03-25T00:50:52;4.63;;;2.50;;
84140;SDS011;74257;52.540;13.416;2024-03-25T00:53:18;6.60;;;2.97;;
84140;SDS011;74257;52.540;13.416;2024-03-25T00:55:44;6.82;;;2.90;;
84140;SDS011;74257;52.540;13.416;2024-03-25T00:58:10;6.38;;;3.00;;
84140;SDS011;74257;52.540;13.416;2024-03-25T01:00:36;4.50;;;2.88;;
84140;SDS011;74257;52.540;13.416;2024-03-25T01:03:01;5.57;;;3.10;;
84140;SDS011;74257;52.540;13.416;2024-03-25T01:05:27;8.40;;;2.78;;
84140;SDS011;74257;52.540;13.416;2024-03-25T01:07:53;7.28;;;2.88;;
84140;SDS011;74257;52.540;13.416;2024-03-25T01:10:19;6.30;;;3.08;;
84140;SDS011;74257;52.540;13.416;2024-03-25T01:12:46;6.57;;;2.85;;
84140;SDS011;74257;52.540;13.416;2024-03-25T01:15:11;5.63;;;2.80;;
84140;SDS011;74257;52.540;13.416;2024-03-25T01:17:37;5.97;;;2.90;;
84140;SDS011;74257;52.540;13.416;2024-03-25T01:20:03;5.72;;;2.95;;
84140;SDS011;74257;52.540;13.416;2024-03-25T01:22:31;5.72;;;2.67;;
84140;SDS011;74257;52.540;13.416;2024-03-25T01:24:57;5.47;;;2.90;;
84140;SDS011;74257;52.540;13.416;2024-03-25T01:27:23;5.93;;;2.90;;
84140;SDS011;74257;52.540;13.416;2024-03-25T01:29:49;5.75;;;2.75;;
84140;SDS011;74257;52.540;13.416;2024-03-25T01:32:15;6.57;;;2.50;;
84140;SDS011;74257;52.540;13.416;2024-03-25T01:34:40;5.30;;;2.65;;
84140;SDS011;74257;52.540;13.416;2024-03-25T01:37:06;5.72;;;2.75;;
84140;SDS011;74257;52.540;13.416;2024-03-25T01:39:32;5.30;;;3.28;;
84140;SDS011;74257;52.540;13.416;2024-03-25T01:41:58;7.78;;;2.60;;
84140;SDS011;74257;52.540;13.416;2024-03-25T01:44:24;4.93;;;2.92;;
84140;SDS011;74257;52.540;13.416;2024-03-25T01:46:49;5.55;;;3.00;;
84140;SDS011;74257;52.540;13.416;2024-03-25T01:49:17;5.03;;;2.78;;
84140;SDS011;74257;52.540;13.416;2024-03-25T01:51:44;4.90;;;2.92;;
84140;SDS011;74257;52.540;13.416;2024-03-25T01:54:10;6.63;;;2.67;;
84140;SDS011;74257;52.540;13.416;2024-03-25T01:56:41;5.28;;;2.65;;
84140;SDS011;74257;52.540;13.416;2024-03-25T01:59:07;5.25;;;2.78;;
84140;SDS011;74257;52.540;13.416;2024-03-25T02:01:33;5.00;;;2.65;;
84140;SDS011;74257;52.540;13.416;2024-03-25T02:03:59;5.57;;;2.60;;
84140;SDS011;74257;52.540;13.416;2024-03-25T02:06:26;6.97;;;3.00;;
84140;SDS011;74257;52.540;13.416;2024-03-25T02:08:54;6.15;;;2.90;;
84140;SDS011;74257;52.540;13.416;2024-03-25T02:11:21;4.72;;;2.55;;
84140;SDS011;74257;52.540;13.416;2024-03-25T02:13:49;6.25;;;2.88;;
84140;SDS011;74257;52.540;13.416;2024-03-25T02:16:16;3.67;;;2.35;;
84140;SDS011;74257;52.540;13.416;2024-03-25T02:18:42;6.55;;;3.10;;
84140;SDS011;74257;52.540;13.416;2024-03-25T02:21:07;7.07;;;2.80;;
84140;SDS011;74257;52.540;13.416;2024-03-25T02:23:33;5.25;;;2.75;;
84140;SDS011;74257;52.540;13.416;2024-03-25T02:25:59;4.32;;;2.35;;
84140;SDS011;74257;52.540;13.416;2024-03-25T02:28:25;6.57;;;2.78;;
84140;SDS011;74257;52.540;13.416;2024-03-25T02:30:51;4.38;;;2.50;;
84140;SDS011;74257;52.540;13.416;2024-03-25T02:33:17;5.25;;;2.33;;
84140;SDS011;74257;52.540;13.416;2024-03-25T02:35:43;4.75;;;2.25;;
84140;SDS011;74257;52.540;13.416;2024-03-25T02:38:10;3.60;;;2.08;;
84140;SDS011;74257;52.540;13.416;2024-03-25T02:40:36;6.15;;;2.47;;
84140;SDS011;74257;52.540;13.416;2024-03-25T02:43:03;4.18;;;2.20;;
84140;SDS011;74257;52.540;13.416;2024-03-25T02:45:29;7.95;;;2.67;;
84140;SDS011;74257;52.540;13.416;2024-03-25T02:47:55;4.75;;;2.28;;
84140;SDS011;74257;52.540;13.416;2024-03-25T02:50:20;5.63;;;2.25;;
84140;SDS011;74257;52.540;13.416;2024-03-25T02:52:46;4.50;;;2.40;;
84140;SDS011;74257;52.540;13.416;2024-03-25T02:55:12;6.18;;;2.33;;
84140;SDS011;74257;52.540;13.416;2024-03-25T02:57:38;4.97;;;2.25;;
84140;SDS011;74257;52.540;13.416;2024-03-25T03:00:03;4.47;;;2.15;;
84140;SDS011;74257;52.540;13.416;2024-03-25T03:02:30;6.22;;;3.05;;
84140;SDS011;74257;52.540;13.416;2024-03-25T03:04:56;3.90;;;2.50;;
84140;SDS011;74257;52.540;13.416;2024-03-25T03:07:22;5.03;;;2.10;;
84140;SDS011;74257;52.540;13.416;2024-03-25T03:09:47;4.68;;;2.35;;
84140;SDS011;74257;52.540;13.416;2024-03-25T03:12:13;5.30;;;2.65;;
84140;SDS011;74257;52.540;13.416;2024-03-25T03:14:39;4.60;;;2.40;;
84140;SDS011;74257;52.540;13.416;2024-03-25T03:17:05;3.80;;;2.10;;
84140;SDS011;74257;52.540;13.416;2024-03-25T03:19:31;4.05;;;2.50;;
84140;SDS011;74257;52.540;13.416;2024-03-25T03:21:57;4.60;;;2.00;;
84140;SDS011;74257;52.540;13.416;2024-03-25T03:24:23;5.15;;;2.25;;
84140;SDS011;74257;52.540;13.416;2024-03-25T03:26:49;5.28;;;2.30;;
84140;SDS011;74257;52.540;13.416;2024-03-25T03:29:15;4.75;;;2.15;;
84140;SDS011;74257;52.540;13.416;2024-03-25T03:31:41;5.47;;;2.38;;
84140;SDS011;74257;52.540;13.416;2024-03-25T03:34:07;4.88;;;2.47;;
84140;SDS011;74257;52.540;13.416;2024-03-25T03:36:32;4.35;;;2.20;;
84140;SDS011;74257;52.540;13.416;2024-03-25T03:38:58;4.15;;;2.33;;
84140;SDS011;74257;52.540;13.416;2024-03-25T03:41:24;3.38;;;2.20;;
84140;SDS011;74257;52.540;13.416;2024-03-25T03:43:50;6.20;;;2.50;;
84140;SDS011;74257;52.540;13.416;2024-03-25T03:46:15;4.43;;;2.03;;
84140;SDS011;74257;52.540;13.416;2024-03-25T03:48:41;4.85;;;2.30;;
84140;SDS011;74257;52.540;13.416;2024-03-25T03:51:07;4.70;;;2.15;;
84140;SDS011;74257;52.540;13.416;2024-03-25T03:53:34;4.18;;;2.30;;
84140;SDS011;74257;52.540;13.416;2024-03-25T03:56:01;4.55;;;2.30;;
84140;SDS011;74257;52.540;13.416;2024-03-25T03:58:30;5.95;;;2.17;;
84140;SDS011;74257;52.540;13.416;2024-03-25T04:00:57;4.20;;;2.25;;
84140;SDS011;74257;52.540;13.416;2024-03-25T04:03:22;6.15;;;2.30;;
84140;SDS011;74257;52.540;13.416;2024-03-25T04:05:49;5.85;;;2.50;;
84140;SDS011;74257;52.540;13.416;2024-03-25T04:08:15;4.78;;;2.47;;
84140;SDS011;74257;52.540;13.416;2024-03-25T04:10:41;3.70;;;1.92;;
84140;SDS011;74257;52.540;13.416;2024-03-25T04:13:08;4.05;;;2.17;;
84140;SDS011;74257;52.540;13.416;2024-03-25T04:15:35;3.40;;;2.03;;
84140;SDS011;74257;52.540;13.416;2024-03-25T04:18:00;5.07;;;2.35;;
84140;SDS011;74257;52.540;13.416;2024-03-25T04:20:27;5.30;;;2.50;;
84140;SDS011;74257;52.540;13.416;2024-03-25T04:22:53;6.88;;;2.50;;
84140;SDS011;74257;52.540;13.416;2024-03-25T04:25:20;5.00;;;2.17;;
84140;SDS011;74257;52.540;13.416;2024-03-25T04:27:46;5.03;;;2.42;;
84140;SDS011;74257;52.540;13.416;2024-03-25T04:30:12;4.20;;;2.35;;
84140;SDS011;74257;52.540;13.416;2024-03-25T04:32:39;5.07;;;2.40;;
84140;SDS011;74257;52.540;13.416;2024-03-25T04:35:06;2.85;;;1.73;;
84140;SDS011;74257;52.540;13.416;2024-03-25T04:37:32;4.65;;;2.03;;
84140;SDS011;74257;52.540;13.416;2024-03-25T04:39:59;3.92;;;1.85;;
84140;SDS011;74257;52.540;13.416;2024-03-25T04:42:25;5.32;;;2.20;;
84140;SDS011;74257;52.540;13.416;2024-03-25T04:44:52;4.70;;;2.20;;
84140;SDS011;74257;52.540;13.416;2024-03-25T04:47:19;4.45;;;2.03;;
84140;SDS011;74257;52.540;13.416;2024-03-25T04:49:44;4.93;;;2.40;;
84140;SDS011;74257;52.540;13.416;2024-03-25T04:52:11;3.10;;;2.13;;
84140;SDS011;74257;52.540;13.416;2024-03-25T04:54:44;5.38;;;1.92;;
84140;SDS011;74257;52.540;13.416;2024-03-25T04:57:10;3.20;;;2.00;;
84140;SDS011;74257;52.540;13.416;2024-03-25T04:59:36;3.80;;;2.00;;
84140;SDS011;74257;52.540;13.416;2024-03-25T05:02:02;4.93;;;1.92;;
84140;SDS011;74257;52.540;13.416;2024-03-25T05:04:28;3.42;;;1.80;;
84140;SDS011;74257;52.540;13.416;2024-03-25T05:06:53;4.07;;;2.03;;
84140;SDS011;74257;52.540;13.416;2024-03-25T05:09:19;9.07;;;2.33;;
84140;SDS011;74257;52.540;13.416;2024-03-25T05:11:45;6.80;;;2.40;;
84140;SDS011;74257;52.540;13.416;2024-03-25T05:14:11;8.13;;;2.83;;
84140;SDS011;74257;52.540;13.416;2024-03-25T05:16:36;7.13;;;2.40;;
84140;SDS011;74257;52.540;13.416;2024-03-25T05:19:03;8.85;;;2.22;;
84140;SDS011;74257;52.540;13.416;2024-03-25T05:21:31;4.75;;;2.22;;
84140;SDS011;74257;52.540;13.416;2024-03-25T05:23:58;5.30;;;2.10;;
84140;SDS011;74257;52.540;13.416;2024-03-25T05:26:23;3.88;;;1.88;;
84140;SDS011;74257;52.540;13.416;2024-03-25T05:28:53;4.43;;;2.40;;
84140;SDS011;74257;52.540;13.416;2024-03-25T05:31:19;5.95;;;1.98;;
84140;SDS011;74257;52.540;13.416;2024-03-25T05:33:45;4.85;;;1.92;;
84140;SDS011;74257;52.540;13.416;2024-03-25T05:36:11;4.75;;;2.10;;
84140;SDS011;74257;52.540;13.416;2024-03-25T05:38:36;7.32;;;2.35;;
84140;SDS011;74257;52.540;13.416;2024-03-25T05:41:03;7.90;;;2.20;;
84140;SDS011;74257;52.540;13.416;2024-03-25T05:43:29;4.95;;;2.00;;
84140;SDS011;74257;52.540;13.416;2024-03-25T05:45:55;5.22;;;2.30;;
84140;SDS011;74257;52.540;13.416;2024-03-25T05:48:24;6.95;;;2.40;;
84140;SDS011;74257;52.540;13.416;2024-03-25T05:51:05;7.57;;;2.38;;
84140;SDS011;74257;52.540;13.416;2024-03-25T05:53:34;5.63;;;2.08;;
84140;SDS011;74257;52.540;13.416;2024-03-25T05:56:00;12.13;;;2.67;;
84140;SDS011;74257;52.540;13.416;2024-03-25T05:58:27;9.63;;;2.47;;
84140;SDS011;74257;52.540;13.416;2024-03-25T06:00:53;9.82;;;2.42;;
84140;SDS011;74257;52.540;13.416;2024-03-25T06:03:19;7.55;;;2.63;;
84140;SDS011;74257;52.540;13.416;2024-03-25T06:05:45;8.13;;;2.47;;
84140;SDS011;74257;52.540;13.416;2024-03-25T06:08:12;9.65;;;2.78;;
84140;SDS011;74257;52.540;13.416;2024-03-25T06:10:50;9.02;;;2.42;;
84140;SDS011;74257;52.540;13.416;2024-03-25T06:13:16;10.38;;;2.40;;
84140;SDS011;74257;52.540;13.416;2024-03-25T06:15:42;9.50;;;2.45;;
84140;SDS011;74257;52.540;13.416;2024-03-25T06:18:08;8.60;;;2.58;;
84140;SDS011;74257;52.540;13.416;2024-03-25T06:20:34;10.82;;;2.67;;
84140;SDS011;74257;52.540;13.416;2024-03-25T06:23:00;7.45;;;2.53;;
84140;SDS011;74257;52.540;13.416;2024-03-25T06:25:26;10.88;;;2.40;;
84140;SDS011;74257;52.540;13.416;2024-03-25T06:27:56;7.82;;;2.55;;
84140;SDS011;74257;52.540;13.416;2024-03-25T06:30:22;7.25;;;2.17;;
84140;SDS011;74257;52.540;13.416;2024-03-25T06:33:07;5.30;;;2.30;;
84140;SDS011;74257;52.540;13.416;2024-03-25T06:35:51;7.55;;;2.47;;
84140;SDS011;74257;52.540;13.416;2024-03-25T06:38:20;5.30;;;2.38;;
84140;SDS011;74257;52.540;13.416;2024-03-25T06:40:46;9.20;;;1.90;;
84140;SDS011;74257;52.540;13.416;2024-03-25T06:43:12;9.18;;;2.33;;
84140;SDS011;74257;52.540;13.416;2024-03-25T06:45:38;5.57;;;2.40;;
84140;SDS011;74257;52.540;13.416;2024-03-25T06:48:04;6.78;;;2.00;;
84140;SDS011;74257;52.540;13.416;2024-03-25T06:50:30;9.70;;;2.70;;
84140;SDS011;74257;52.540;13.416;2024-03-25T06:52:55;8.68;;;2.40;;
84140;SDS011;74257;52.540;13.416;2024-03-25T06:55:21;6.68;;;2.22;;
84140;SDS011;74257;52.540;13.416;2024-03-25T06:57:50;8.05;;;2.40;;
84140;SDS011;74257;52.540;13.416;2024-03-25T07:00:16;7.72;;;2.08;;
84140;SDS011;74257;52.540;13.416;2024-03-25T07:02:42;9.15;;;2.30;;
84140;SDS011;74257;52.540;13.416;2024-03-25T07:05:08;10.75;;;2.60;;
84140;SDS011;74257;52.540;13.416;2024-03-25T07:07:34;15.25;;;3.03;;
84140;SDS011;74257;52.540;13.416;2024-03-25T07:09:59;12.98;;;2.40;;
84140;SDS011;74257;52.540;13.416;2024-03-25T07:12:26;9.38;;;2.60;;
84140;SDS011;74257;52.540;13.416;2024-03-25T07:14:52;10.00;;;2.33;;
84140;SDS011;74257;52.540;13.416;2024-03-25T07:17:18;7.65;;;2.17;;
84140;SDS011;74257;52.540;13.416;2024-03-25T07:19:43;12.15;;;2.53;;
84140;SDS011;74257;52.540;13.416;2024-03-25T07:22:10;8.98;;;2.30;;
84140;SDS011;74257;52.540;13.416;2024-03-25T07:24:36;10.60;;;2.60;;
84140;SDS011;74257;52.540;13.416;2024-03-25T07:27:02;8.43;;;2.22;;
84140;SDS011;74257;52.540;13.416;2024-03-25T07:29:27;5.75;;;2.30;;
84140;SDS011;74257;52.540;13.416;2024-03-25T07:31:53;8.65;;;2.55;;
84140;SDS011;74257;52.540;13.416;2024-03-25T07:34:19;9.30;;;2.90;;
84140;SDS011;74257;52.540;13.416;2024-03-25T07:36:45;7.07;;;2.45;;
84140;SDS011;74257;52.540;13.416;2024-03-25T07:39:11;10.45;;;2.60;;
84140;SDS011;74257;52.540;13.416;2024-03-25T07:41:37;9.70;;;2.95;;
84140;SDS011;74257;52.540;13.416;2024-03-25T07:44:02;9.00;;;2.85;;
84140;SDS011;74257;52.540;13.416;2024-03-25T07:46:30;7.63;;;2.13;;
84140;SDS011;74257;52.540;13.416;2024-03-25T07:48:56;7.43;;;2.45;;
84140;SDS011;74257;52.540;13.416;2024-03-25T07:51:21;10.88;;;2.60;;
84140;SDS011;74257;52.540;13.416;2024-03-25T07:53:47;10.32;;;2.25;;
84140;SDS011;74257;52.540;13.416;2024-03-25T07:56:17;8.38;;;2.20;;
84140;SDS011;74257;52.540;13.416;2024-03-25T07:58:43;6.82;;;2.38;;
84140;SDS011;74257;52.540;13.416;2024-03-25T08:01:09;12.73;;;2.35;;
84140;SDS011;74257;52.540;13.416;2024-03-25T08:03:34;9.80;;;2.33;;
84140;SDS011;74257;52.540;13.416;2024-03-25T08:06:00;5.78;;;2.22;;
84140;SDS011;74257;52.540;13.416;2024-03-25T08:08:26;6.68;;;2.30;;
84140;SDS011;74257;52.540;13.416;2024-03-25T08:10:52;5.47;;;1.80;;
84140;SDS011;74257;52.540;13.416;2024-03-25T08:13:18;8.23;;;2.65;;
84140;SDS011;74257;52.540;13.416;2024-03-25T08:15:47;8.65;;;2.35;;
84140;SDS011;74257;52.540;13.416;2024-03-25T08:18:13;5.38;;;2.30;;
84140;SDS011;74257;52.540;13.416;2024-03-25T08:20:39;11.82;;;2.25;;
84140;SDS011;74257;52.540;13.416;2024-03-25T08:23:05;13.10;;;2.35;;
84140;SDS011;74257;52.540;13.416;2024-03-25T08:25:30;9.77;;;2.60;;
84140;SDS011;74257;52.540;13.416;2024-03-25T08:27:57;6.45;;;2.22;;
84140;SDS011;74257;52.540;13.416;2024-03-25T08:30:24;10.45;;;3.08;;
84140;SDS011;74257;52.540;13.416;2024-03-25T08:32:50;15.27;;;2.47;;
84140;SDS011;74257;52.540;13.416;2024-03-25T08:35:16;14.05;;;2.75;;
84140;SDS011;74257;52.540;13.416;2024-03-25T08:37:41;9.27;;;2.60;;
84140;SDS011;74257;52.540;13.416;2024-03-25T08:40:07;4.97;;;2.10;;
84140;SDS011;74257;52.540;13.416;2024-03-25T08:42:34;11.05;;;2.38;;
84140;SDS011;74257;52.540;13.416;2024-03-25T08:45:00;5.13;;;2.20;;
84140;SDS011;74257;52.540;13.416;2024-03-25T08:47:26;11.23;;;2.30;;
84140;SDS011;74257;52.540;13.416;2024-03-25T08:49:52;7.47;;;2.30;;
84140;SDS011;74257;52.540;13.416;2024-03-25T08:52:17;8.25;;;2.20;;
84140;SDS011;74257;52.540;13.416;2024-03-25T08:54:43;6.78;;;2.00;;
84140;SDS011;74257;52.540;13.416;2024-03-25T08:57:09;5.60;;;2.00;;
84140;SDS011;74257;52.540;13.416;2024-03-25T08:59:35;9.73;;;2.75;;
84140;SDS011;74257;52.540;13.416;2024-03-25T09:02:01;10.55;;;2.65;;
84140;SDS011;74257;52.540;13.416;2024-03-25T09:04:27;9.23;;;2.70;;
84140;SDS011;74257;52.540;13.416;2024-03-25T09:06:52;8.13;;;2.88;;
84140;SDS011;74257;52.540;13.416;2024-03-25T09:09:18;16.75;;;2.78;;
84140;SDS011;74257;52.540;13.416;2024-03-25T09:12:03;7.50;;;3.03;;
84140;SDS011;74257;52.540;13.416;2024-03-25T09:14:29;8.68;;;3.05;;
84140;SDS011;74257;52.540;13.416;2024-03-25T09:16:54;11.20;;;2.28;;
84140;SDS011;74257;52.540;13.416;2024-03-25T09:19:20;9.20;;;2.55;;
84140;SDS011;74257;52.540;13.416;2024-03-25T09:21:46;6.88;;;2.25;;
84140;SDS011;74257;52.540;13.416;2024-03-25T09:24:11;8.48;;;2.47;;
84140;SDS011;74257;52.540;13.416;2024-03-25T09:26:37;7.38;;;2.15;;
84140;SDS011;74257;52.540;13.416;2024-03-25T09:29:03;8.27;;;2.78;;
84140;SDS011;74257;52.540;13.416;2024-03-25T09:31:29;11.02;;;2.97;;
84140;SDS011;74257;52.540;13.416;2024-03-25T09:33:54;11.65;;;3.40;;
84140;SDS011;74257;52.540;13.416;2024-03-25T09:36:20;11.95;;;2.80;;
84140;SDS011;74257;52.540;13.416;2024-03-25T09:38:46;8.75;;;2.53;;
84140;SDS011;74257;52.540;13.416;2024-03-25T09:41:12;10.07;;;3.10;;
84140;SDS011;74257;52.540;13.416;2024-03-25T09:43:47;20.77;;;3.15;;
84140;SDS011;74257;52.540;13.416;2024-03-25T09:46:15;10.07;;;2.78;;
84140;SDS011;74257;52.540;13.416;2024-03-25T09:48:42;10.93;;;2.72;;
84140;SDS011;74257;52.540;13.416;2024-03-25T09:51:09;17.17;;;3.03;;
84140;SDS011;74257;52.540;13.416;2024-03-25T09:53:35;14.80;;;2.92;;
84140;SDS011;74257;52.540;13.416;2024-03-25T09:56:01;14.68;;;2.70;;
84140;SDS011;74257;52.540;13.416;2024-03-25T09:58:27;15.63;;;2.60;;
84140;SDS011;74257;52.540;13.416;2024-03-25T10:00:54;17.48;;;3.42;;
84140;SDS011;74257;52.540;13.416;2024-03-25T10:03:21;13.45;;;2.78;;
84140;SDS011;74257;52.540;13.416;2024-03-25T10:05:47;14.77;;;3.25;;
84140;SDS011;74257;52.540;13.416;2024-03-25T10:08:13;16.77;;;2.92;;
84140;SDS011;74257;52.540;13.416;2024-03-25T10:10:38;10.43;;;3.35;;
84140;SDS011;74257;52.540;13.416;2024-03-25T10:13:05;16.08;;;4.13;;
84140;SDS011;74257;52.540;13.416;2024-03-25T10:15:31;16.58;;;2.83;;
84140;SDS011;74257;52.540;13.416;2024-03-25T10:17:57;13.85;;;2.83;;
84140;SDS011;74257;52.540;13.416;2024-03-25T10:20:23;10.50;;;2.88;;
84140;SDS011;74257;52.540;13.416;2024-03-25T10:22:49;13.50;;;3.45;;
84140;SDS011;74257;52.540;13.416;2024-03-25T10:25:27;6.65;;;2.55;;
84140;SDS011;74257;52.540;13.416;2024-03-25T10:27:58;7.50;;;2.38;;
84140;SDS011;74257;52.540;13.416;2024-03-25T10:30:28;8.00;;;2.17;;
84140;SDS011;74257;52.540;13.416;2024-03-25T10:33:04;16.23;;;2.53;;
84140;SDS011;74257;52.540;13.416;2024-03-25T10:35:31;9.32;;;2.50;;
84140;SDS011;74257;52.540;13.416;2024-03-25T10:38:00;6.93;;;2.38;;
84140;SDS011;74257;52.540;13.416;2024-03-25T10:40:27;9.07;;;2.85;;
84140;SDS011;74257;52.540;13.416;2024-03-25T10:42:56;12.88;;;2.55;;
84140;SDS011;74257;52.540;13.416;2024-03-25T10:45:37;7.68;;;2.40;;
84140;SDS011;74257;52.540;13.416;2024-03-25T10:48:10;10.25;;;2.33;;
84140;SDS011;74257;52.540;13.416;2024-03-25T10:50:43;7.50;;;2.17;;
84140;SDS011;74257;52.540;13.416;2024-03-25T10:53:10;5.85;;;2.70;;
84140;SDS011;74257;52.540;13.416;2024-03-25T10:55:36;8.85;;;2.30;;
84140;SDS011;74257;52.540;13.416;2024-03-25T10:58:03;6.30;;;2.35;;
84140;SDS011;74257;52.540;13.416;2024-03-25T11:00:30;6.40;;;2.05;;
84140;SDS011;74257;52.540;13.416;2024-03-25T11:02:56;5.30;;;2.03;;
84140;SDS011;74257;52.540;13.416;2024-03-25T11:05:23;6.15;;;2.30;;
84140;SDS011;74257;52.540;13.416;2024-03-25T11:07:50;11.35;;;2.60;;
84140;SDS011;74257;52.540;13.416;2024-03-25T11:10:15;6.55;;;2.30;;
84140;SDS011;74257;52.540;13.416;2024-03-25T11:12:41;9.63;;;2.60;;
84140;SDS011;74257;52.540;13.416;2024-03-25T11:15:08;6.40;;;2.10;;
84140;SDS011;74257;52.540;13.416;2024-03-25T11:17:35;5.93;;;2.60;;
84140;SDS011;74257;52.540;13.416;2024-03-25T11:20:08;6.57;;;2.60;;
84140;SDS011;74257;52.540;13.416;2024-03-25T11:22:35;6.68;;;2.85;;
84140;SDS011;74257;52.540;13.416;2024-03-25T11:25:12;7.43;;;2.63;;
84140;SDS011;74257;52.540;13.416;2024-03-25T11:27:39;6.43;;;2.90;;
84140;SDS011;74257;52.540;13.416;2024-03-25T11:30:08;7.93;;;2.40;;
84140;SDS011;74257;52.540;13.416;2024-03-25T11:32:47;6.95;;;2.30;;
84140;SDS011;74257;52.540;13.416;2024-03-25T11:35:17;5.30;;;2.22;;
84140;SDS011;74257;52.540;13.416;2024-03-25T11:37:43;7.15;;;2.83;;
84140;SDS011;74257;52.540;13.416;2024-03-25T11:40:10;9.75;;;2.45;;
84140;SDS011;74257;52.540;13.416;2024-03-25T11:42:40;7.65;;;2.38;;
84140;SDS011;74257;52.540;13.416;2024-03-25T11:45:07;9.10;;;2.60;;
84140;SDS011;74257;52.540;13.416;2024-03-25T11:47:33;8.02;;;2.25;;
84140;SDS011;74257;52.540;13.416;2024-03-25T11:49:59;5.10;;;2.30;;
84140;SDS011;74257;52.540;13.416;2024-03-25T11:52:31;5.75;;;2.13;;
84140;SDS011;74257;52.540;13.416;2024-03-25T11:54:57;4.85;;;1.98;;
84140;SDS011;74257;52.540;13.416;2024-03-25T11:57:23;6.22;;;2.30;;
84140;SDS011;74257;52.540;13.416;2024-03-25T11:59:48;5.47;;;1.90;;
84140;SDS011;74257;52.540;13.416;2024-03-25T12:02:15;7.85;;;2.40;;
84140;SDS011;74257;52.540;13.416;2024-03-25T12:04:44;4.88;;;1.90;;
84140;SDS011;74257;52.540;13.416;2024-03-25T12:07:14;5.07;;;1.88;;
84140;SDS011;74257;52.540;13.416;2024-03-25T12:09:40;6.88;;;2.38;;
84140;SDS011;74257;52.540;13.416;2024-03-25T12:12:29;4.50;;;1.73;;
84140;SDS011;74257;52.540;13.416;2024-03-25T12:14:57;7.80;;;2.38;;
84140;SDS011;74257;52.540;13.416;2024-03-25T12:17:23;6.63;;;2.47;;
84140;SDS011;74257;52.540;13.416;2024-03-25T12:22:31;7.50;;;2.10;;
84140;SDS011;74257;52.540;13.416;2024-03-25T12:25:00;6.43;;;2.50;;
84140;SDS011;74257;52.540;13.416;2024-03-25T12:27:27;5.20;;;2.00;;
84140;SDS011;74257;52.540;13.416;2024-03-25T12:30:00;6.72;;;2.08;;
84140;SDS011;74257;52.540;13.416;2024-03-25T12:32:35;12.60;;;2.13;;
84140;SDS011;74257;52.540;13.416;2024-03-25T12:35:09;5.30;;;1.90;;
84140;SDS011;74257;52.540;13.416;2024-03-25T12:37:40;4.13;;;1.90;;
84140;SDS011;74257;52.540;13.416;2024-03-25T12:40:07;5.43;;;1.80;;
84140;SDS011;74257;52.540;13.416;2024-03-25T12:42:36;4.97;;;1.95;;
84140;SDS011;74257;52.540;13.416;2024-03-25T12:45:03;5.10;;;1.90;;
84140;SDS011;74257;52.540;13.416;2024-03-25T12:47:29;5.00;;;1.80;;
84140;SDS011;74257;52.540;13.416;2024-03-25T12:49:58;5.22;;;1.90;;
84140;SDS011;74257;52.540;13.416;2024-03-25T12:52:24;4.25;;;2.05;;
84140;SDS011;74257;52.540;13.416;2024-03-25T12:54:50;4.80;;;2.03;;
84140;SDS011;74257;52.540;13.416;2024-03-25T12:57:16;8.45;;;2.25;;
84140;SDS011;74257;52.540;13.416;2024-03-25T12:59:41;6.22;;;1.95;;
84140;SDS011;74257;52.540;13.416;2024-03-25T13:02:09;3.78;;;2.28;;
84140;SDS011;74257;52.540;13.416;2024-03-25T13:04:36;6.10;;;1.98;;
84140;SDS011;74257;52.540;13.416;2024-03-25T13:07:03;6.10;;;2.05;;
84140;SDS011;74257;52.540;13.416;2024-03-25T13:09:29;4.88;;;1.90;;
84140;SDS011;74257;52.540;13.416;2024-03-25T13:11:56;6.55;;;1.83;;
84140;SDS011;74257;52.540;13.416;2024-03-25T13:14:22;4.93;;;1.77;;
84140;SDS011;74257;52.540;13.416;2024-03-25T13:16:48;8.75;;;2.13;;
84140;SDS011;74257;52.540;13.416;2024-03-25T13:19:13;4.28;;;1.80;;
84140;SDS011;74257;52.540;13.416;2024-03-25T13:21:39;4.13;;;1.80;;
84140;SDS011;74257;52.540;13.416;2024-03-25T13:24:06;4.20;;;1.80;;
84140;SDS011;74257;52.540;13.416;2024-03-25T13:26:32;3.85;;;1.40;;
84140;SDS011;74257;52.540;13.416;2024-03-25T13:28:58;6.95;;;1.95;;
84140;SDS011;74257;52.540;13.416;2024-03-25T13:31:24;3.03;;;1.70;;
84140;SDS011;74257;52.540;13.416;2024-03-25T13:33:49;6.22;;;1.70;;
84140;SDS011;74257;52.540;13.416;2024-03-25T13:36:17;5.97;;;1.98;;
84140;SDS011;74257;52.540;13.416;2024-03-25T13:38:43;4.30;;;2.08;;
84140;SDS011;74257;52.540;13.416;2024-03-25T13:41:09;5.03;;;1.70;;
84140;SDS011;74257;52.540;13.416;2024-03-25T13:43:35;8.55;;;1.65;;
84140;SDS011;74257;52.540;13.416;2024-03-25T13:46:01;8.02;;;1.73;;
84140;SDS011;74257;52.540;13.416;2024-03-25T13:48:26;3.13;;;1.80;;
84140;SDS011;74257;52.540;13.416;2024-03-25T13:50:53;6.90;;;1.88;;
84140;SDS011;74257;52.540;13.416;2024-03-25T13:53:19;4.75;;;1.60;;
84140;SDS011;74257;52.540;13.416;2024-03-25T13:55:45;6.43;;;1.80;;
84140;SDS011;74257;52.540;13.416;2024-03-25T13:58:11;6.18;;;1.67;;
84140;SDS011;74257;52.540;13.416;2024-03-25T14:00:37;4.00;;;1.67;;
84140;SDS011;74257;52.540;13.416;2024-03-25T14:03:03;5.60;;;1.58;;
84140;SDS011;74257;52.540;13.416;2024-03-25T14:05:29;4.60;;;1.70;;
84140;SDS011;74257;52.540;13.416;2024-03-25T14:07:55;5.05;;;1.60;;
84140;SDS011;74257;52.540;13.416;2024-03-25T14:10:24;5.13;;;1.73;;
84140;SDS011;74257;52.540;13.416;2024-03-25T14:12:49;8.13;;;1.88;;
84140;SDS011;74257;52.540;13.416;2024-03-25T14:15:15;5.75;;;1.80;;
84140;SDS011;74257;52.540;13.416;2024-03-25T14:17:41;4.57;;;1.63;;
84140;SDS011;74257;52.540;13.416;2024-03-25T14:20:07;4.72;;;1.92;;
84140;SDS011;74257;52.540;13.416;2024-03-25T14:22:33;4.32;;;1.65;;
84140;SDS011;74257;52.540;13.416;2024-03-25T14:24:59;3.83;;;1.48;;
84140;SDS011;74257;52.540;13.416;2024-03-25T14:27:25;3.65;;;1.70;;
84140;SDS011;74257;52.540;13.416;2024-03-25T14:29:52;4.10;;;1.50;;
84140;SDS011;74257;52.540;13.416;2024-03-25T14:32:21;4.85;;;1.77;;
84140;SDS011;74257;52.540;13.416;2024-03-25T14:34:48;5.43;;;1.65;;